• Join FlightAware (Why Join?)
  • Login
  • US Flag 
07:37PM EDT


 

Airport Tracker/Info


-or-


 

Live Flight TrackerFlight Track Log ✈ UAL4305 ✈ 20-Apr-2013 ✈ KIAH - KMCI

Flight Track Log - Related Links

Times and Time Zones

All times are in EDT time to prevent confusion due to time zone crossing. See the UAL4305 flight status page for this flight to view local times or setup timezone preferences in your user account.

Time Position Orientation Groundspeed Altitude Reporting Facility
EDT Latitude Longitude Course Direction KTS MPH feet Rate Location/Type
10:11AM 29.9767 -95.3008 337° Northwest 226 260 700  Level Houston Center
10:12AM 30.0103 -95.2775 31° Northeast 193 222 2,500 2,160 Climbing Houston Center
10:13AM 30.0489 -95.2878 347° North 238 274 3,800 2,760 Climbing Houston Center
10:13AM 30.0739 -95.3083 325° Northwest 274 315 5,400 3,240 Climbing Houston Center
10:14AM 30.1117 -95.3339 330° Northwest 261 300 7,200 3,120 Climbing Houston Center
10:14AM 30.1414 -95.3581 325° Northwest 270 311 8,600 2,520 Climbing Houston Center
10:15AM 30.3453 -95.5471 332° Northwest  Level FlightAware Approximate
10:15AM 30.1750 -95.3822 328° Northwest 272 313 9,800  Level Houston Center
10:16AM 30.4369 -95.5982 334° Northwest  Level FlightAware Approximate
10:16AM 30.2503 -95.4383 327° Northwest 310 357 11,100  Level Houston Center
10:17AM 30.5291 -95.6479 337° Northwest  Level FlightAware Approximate
10:17AM 30.3294 -95.4964 328° Northwest 335 386 13,800  Level Houston Center
10:18AM 30.4064 -95.5567 326° Northwest 336 387 15,500 1,560 Climbing Houston Center
10:19AM 30.4897 -95.6178 328° Northwest 351 404 17,100 1,560 Climbing Houston Center
10:20AM 30.5969 -95.6850 332° Northwest 366 421 18,700 1,560 Climbing Houston Center
10:21AM 30.6942 -95.7375 335° Northwest 370 426 20,400 1,500 Climbing Houston Center
10:22AM 30.7906 -95.7883 336° Northwest 377 434 21,800 1,620 Climbing Houston Center
10:23AM 30.8869 -95.8394 336° Northwest 379 436 23,800 1,620 Climbing Houston Center
10:24AM 30.9794 -95.8897 335° Northwest 368 423 25,200 1,620 Climbing Houston Center
10:25AM 31.0711 -95.9386 335° Northwest 362 417 27,200 1,860 Climbing Houston Center
10:26AM 31.1319 -95.9669 338° Northwest 354 407 28,200 1,800 Climbing Fort Worth Center
10:27AM 31.2325 -95.9919 348° North 354 407 30,100 1,740 Climbing Fort Worth Center
10:28AM 31.3225 -96.0125 349° North 344 396 31,700 1,440 Climbing Fort Worth Center
10:29AM 31.4186 -96.0356 348° North 344 396 33,000 1,140 Climbing Fort Worth Center
10:30AM 31.5003 -96.0539 349° North 339 390 34,000 960 Climbing Fort Worth Center
10:31AM 31.5925 -96.0769 348° North 340 391 35,000 480 Climbing Fort Worth Center
10:32AM 31.6931 -96.1022 348° North 349 402 35,000  Level Fort Worth Center
10:33AM 31.7997 -96.1228 351° North 365 420 35,000  Level Fort Worth Center
10:34AM 31.9164 -96.1161 North 404 465 35,000  Level Fort Worth Center
10:35AM 32.0311 -96.1072 North 414 476 35,000  Level Fort Worth Center
10:36AM 32.1542 -96.0956 North 429 494 35,000  Level Fort Worth Center
10:37AM 32.2733 -96.0889 North 429 494 35,000  Level Fort Worth Center
10:38AM 32.4025 -96.0797 North 429 494 35,000  Level Fort Worth Center
10:39AM 32.5256 -96.0706 North 429 494 35,000  Level Fort Worth Center
10:40AM 32.6425 -96.0614 North 429 494 35,000  Level Fort Worth Center
10:41AM 32.7656 -96.0547 North 429 494 35,000  Level Fort Worth Center
10:42AM 32.8844 -96.0453 North 429 494 35,000  Level Fort Worth Center
10:43AM 33.0033 -96.0361 North 424 488 35,000  Level Fort Worth Center
10:44AM 33.1264 -96.0244 North 429 494 35,000  Level Fort Worth Center
10:45AM 33.2472 -96.0175 North 429 494 35,000  Level Fort Worth Center
10:46AM 33.3683 -96.0081 North 429 494 35,000  Level Fort Worth Center
10:47AM 33.4850 -95.9989 North 424 488 35,000  Level Fort Worth Center
10:48AM 33.6081 -95.9894 North 424 488 35,000  Level Fort Worth Center
10:49AM 33.7250 -95.9800 North 424 488 35,000  Level Fort Worth Center
10:50AM 33.8478 -95.9731 North 424 488 35,000  Level Fort Worth Center
10:51AM 33.9542 -95.9661 North 424 488 35,000  Level Fort Worth Center
10:52AM 34.0731 -95.9542 North 424 488 35,000  Level Fort Worth Center
10:53AM 34.2025 -95.9494 North 417 480 35,000  Level Fort Worth Center
10:54AM 34.3233 -95.9375 North 423 487 35,000  Level Fort Worth Center
10:55AM 34.4442 -95.9278 North 429 494 35,000  Level Fort Worth Center
10:56AM 34.5650 -95.9181 North 429 494 35,000  Level Fort Worth Center
10:57AM 34.6903 -95.9083 North 440 506 35,000  Level Fort Worth Center
10:58AM 34.8131 -95.8986 North 440 506 35,000  Level Fort Worth Center
10:59AM 34.9361 -95.8889 North 440 506 35,000  Level Fort Worth Center
11:00AM 35.0506 -95.8792 North 440 506 35,000  Level Fort Worth Center
11:01AM 35.1736 -95.8719 North 440 506 35,000  Level Fort Worth Center
11:02AM 35.2967 -95.8594 North 440 506 35,000  Level Fort Worth Center
11:04AM 35.5350 -95.8408 North 440 506 35,000  Level Kansas City Center
11:05AM 35.6575 -95.8297 North 439 505 35,000  Level Kansas City Center
11:06AM 35.7789 -95.8214 North 436 502 35,000  Level Kansas City Center
11:07AM 35.9008 -95.8119 North 436 502 35,000  Level Kansas City Center
11:08AM 36.0464 -95.7997 North 434 499 35,000  Level Kansas City Center
11:09AM 36.1681 -95.7900 North 434 499 35,000  Level Kansas City Center
11:10AM 36.2914 -95.7756 North 438 504 35,000  Level Kansas City Center
11:11AM 36.4175 -95.7589 North 443 510 35,000  Level Kansas City Center
11:12AM 36.5397 -95.7419 North 448 516 35,000  Level Kansas City Center
11:13AM 36.6700 -95.7242 North 449 517 35,000  Level Kansas City Center
11:14AM 36.7947 -95.7069 North 446 513 35,000  Level Kansas City Center
11:15AM 36.9194 -95.6914 North 448 516 35,000  Level Kansas City Center
11:16AM 37.0444 -95.6744 North 449 517 35,000  Level Kansas City Center
11:17AM 37.1692 -95.6592 North 448 516 35,000 -180 Level Kansas City Center
11:18AM 37.3192 -95.6378 North 450 518 34,700 -600 Descending Kansas City Center
11:19AM 37.4436 -95.6172 North 449 517 33,800 -960 Descending Kansas City Center
11:20AM 37.5672 -95.6003 North 446 513 32,800 -960 Descending Kansas City Center
11:21AM 37.6919 -95.5825 North 448 516 31,900 -960 Descending Kansas City Center
11:22AM 37.8178 -95.5653 North 452 520 30,900 -960 Descending Kansas City Center
11:23AM 37.9450 -95.5500 North 459 528 30,000 -1,980 Descending Kansas City Center
11:24AM 38.0825 -95.5283 North 445 512 26,800 -2,820 Descending Kansas City Center
11:25AM 38.2003 -95.5114 North 442 509 24,300 -2,640 Descending Kansas City Center
11:26AM 38.3328 -95.4919 North 432 497 21,400 -2,520 Descending Kansas City Center
11:27AM 38.4411 -95.4769 North 414 476 19,100 -2,340 Descending Kansas City Center
11:28AM 38.5608 -95.4586 North 391 450 16,700 -2,400 Descending Kansas City Center
11:29AM 38.6578 -95.4419 North 365 420 14,300 -2,160 Descending Kansas City Center
11:31AM 38.7539 -95.4278 North 362 417 12,300 -1,200 Descending Kansas City Center
11:32AM 38.8511 -95.3567 30° Northeast 378 435 11,800 -780 Descending Kansas City Center
11:33AM 38.9108 -95.2722 48° Northeast 339 390 10,800 -1,380 Descending Kansas City Center
11:34AM 38.9594 -95.1725 58° Northeast 298 343 9,000 -1,740 Descending Kansas City Center
11:35AM 38.9992 -95.0881 59° Northeast 290 334 7,300 -1,440 Descending Kansas City Center
11:36AM 39.0431 -94.9936 59° Northeast 278 320 6,100 -1,140 Descending Kansas City Center
11:37AM 39.0794 -94.9142 59° Northeast 272 313 5,000 -900 Descending Kansas City Center
11:38AM 39.1211 -94.8225 60° Northeast 267 307 4,300 -720 Descending Kansas City Center